sensor_id;sensor_type;location;lat;lon;timestamp;P1;durP1;ratioP1;P2;durP2;ratioP2
33716;SDS011;20046;50.746;7.072;2023-12-14T00:01:43;19.15;;;10.88;;
33716;SDS011;20046;50.746;7.072;2023-12-14T00:04:11;26.13;;;11.13;;
33716;SDS011;20046;50.746;7.072;2023-12-14T00:06:36;30.85;;;12.60;;
33716;SDS011;20046;50.746;7.072;2023-12-14T00:09:02;19.02;;;11.32;;
33716;SDS011;20046;50.746;7.072;2023-12-14T00:11:27;21.90;;;11.60;;
33716;SDS011;20046;50.746;7.072;2023-12-14T00:13:53;26.23;;;12.10;;
33716;SDS011;20046;50.746;7.072;2023-12-14T00:16:19;34.63;;;12.73;;
33716;SDS011;20046;50.746;7.072;2023-12-14T00:18:45;20.77;;;12.68;;
33716;SDS011;20046;50.746;7.072;2023-12-14T00:21:11;27.75;;;12.35;;
33716;SDS011;20046;50.746;7.072;2023-12-14T00:23:36;22.40;;;11.80;;
33716;SDS011;20046;50.746;7.072;2023-12-14T00:26:02;22.95;;;11.88;;
33716;SDS011;20046;50.746;7.072;2023-12-14T00:28:28;21.23;;;12.50;;
33716;SDS011;20046;50.746;7.072;2023-12-14T00:30:54;25.90;;;11.70;;
33716;SDS011;20046;50.746;7.072;2023-12-14T00:33:19;24.92;;;12.43;;
33716;SDS011;20046;50.746;7.072;2023-12-14T00:35:45;30.65;;;12.25;;
33716;SDS011;20046;50.746;7.072;2023-12-14T00:38:10;27.63;;;13.15;;
33716;SDS011;20046;50.746;7.072;2023-12-14T00:40:36;27.00;;;13.77;;
33716;SDS011;20046;50.746;7.072;2023-12-14T00:43:01;30.42;;;14.05;;
33716;SDS011;20046;50.746;7.072;2023-12-14T00:45:27;26.25;;;14.00;;
33716;SDS011;20046;50.746;7.072;2023-12-14T00:47:53;36.35;;;15.25;;
33716;SDS011;20046;50.746;7.072;2023-12-14T00:50:18;31.67;;;14.40;;
33716;SDS011;20046;50.746;7.072;2023-12-14T00:52:44;30.95;;;14.40;;
33716;SDS011;20046;50.746;7.072;2023-12-14T00:55:09;34.78;;;13.57;;
33716;SDS011;20046;50.746;7.072;2023-12-14T00:57:35;31.40;;;15.02;;
33716;SDS011;20046;50.746;7.072;2023-12-14T01:00:00;29.80;;;15.20;;
33716;SDS011;20046;50.746;7.072;2023-12-14T01:02:26;36.25;;;15.75;;
33716;SDS011;20046;50.746;7.072;2023-12-14T01:04:52;34.33;;;15.18;;
33716;SDS011;20046;50.746;7.072;2023-12-14T01:07:17;35.97;;;15.07;;
33716;SDS011;20046;50.746;7.072;2023-12-14T01:09:43;34.13;;;16.13;;
33716;SDS011;20046;50.746;7.072;2023-12-14T01:12:08;35.42;;;15.90;;
33716;SDS011;20046;50.746;7.072;2023-12-14T01:14:34;35.30;;;15.43;;
33716;SDS011;20046;50.746;7.072;2023-12-14T01:16:59;35.83;;;16.98;;
33716;SDS011;20046;50.746;7.072;2023-12-14T01:19:25;35.08;;;17.60;;
33716;SDS011;20046;50.746;7.072;2023-12-14T01:21:51;42.88;;;19.00;;
33716;SDS011;20046;50.746;7.072;2023-12-14T01:24:17;45.80;;;22.60;;
33716;SDS011;20046;50.746;7.072;2023-12-14T01:26:42;107.55;;;52.33;;
33716;SDS011;20046;50.746;7.072;2023-12-14T01:29:08;51.17;;;23.20;;
33716;SDS011;20046;50.746;7.072;2023-12-14T01:31:33;49.33;;;22.08;;
33716;SDS011;20046;50.746;7.072;2023-12-14T01:33:59;50.42;;;22.40;;
33716;SDS011;20046;50.746;7.072;2023-12-14T01:36:25;53.88;;;23.45;;
33716;SDS011;20046;50.746;7.072;2023-12-14T01:38:51;68.00;;;27.73;;
33716;SDS011;20046;50.746;7.072;2023-12-14T01:41:17;73.63;;;29.73;;
33716;SDS011;20046;50.746;7.072;2023-12-14T01:43:43;77.95;;;29.75;;
33716;SDS011;20046;50.746;7.072;2023-12-14T01:46:09;81.63;;;32.28;;
33716;SDS011;20046;50.746;7.072;2023-12-14T01:48:36;85.75;;;32.88;;
33716;SDS011;20046;50.746;7.072;2023-12-14T01:51:02;81.80;;;33.55;;
33716;SDS011;20046;50.746;7.072;2023-12-14T01:53:28;88.75;;;33.67;;
33716;SDS011;20046;50.746;7.072;2023-12-14T01:55:54;94.78;;;34.88;;
33716;SDS011;20046;50.746;7.072;2023-12-14T01:58:19;106.15;;;35.50;;
33716;SDS011;20046;50.746;7.072;2023-12-14T02:00:50;105.93;;;36.17;;
33716;SDS011;20046;50.746;7.072;2023-12-14T02:03:18;101.75;;;38.00;;
33716;SDS011;20046;50.746;7.072;2023-12-14T02:05:50;111.43;;;38.78;;
33716;SDS011;20046;50.746;7.072;2023-12-14T02:08:15;126.47;;;39.20;;
33716;SDS011;20046;50.746;7.072;2023-12-14T02:10:41;122.65;;;38.97;;
33716;SDS011;20046;50.746;7.072;2023-12-14T02:13:06;118.68;;;39.58;;
33716;SDS011;20046;50.746;7.072;2023-12-14T02:15:32;126.63;;;39.70;;
33716;SDS011;20046;50.746;7.072;2023-12-14T02:17:58;138.38;;;41.60;;
33716;SDS011;20046;50.746;7.072;2023-12-14T02:20:24;119.28;;;41.30;;
33716;SDS011;20046;50.746;7.072;2023-12-14T02:22:53;125.43;;;40.65;;
33716;SDS011;20046;50.746;7.072;2023-12-14T02:25:19;128.88;;;40.97;;
33716;SDS011;20046;50.746;7.072;2023-12-14T02:27:46;144.40;;;42.13;;
33716;SDS011;20046;50.746;7.072;2023-12-14T02:30:12;129.93;;;41.88;;
33716;SDS011;20046;50.746;7.072;2023-12-14T02:32:38;141.13;;;43.80;;
33716;SDS011;20046;50.746;7.072;2023-12-14T02:35:05;137.43;;;43.75;;
33716;SDS011;20046;50.746;7.072;2023-12-14T02:37:31;145.77;;;41.78;;
33716;SDS011;20046;50.746;7.072;2023-12-14T02:39:58;138.38;;;42.67;;
33716;SDS011;20046;50.746;7.072;2023-12-14T02:42:24;144.43;;;43.38;;
33716;SDS011;20046;50.746;7.072;2023-12-14T02:44:50;129.23;;;42.33;;
33716;SDS011;20046;50.746;7.072;2023-12-14T02:47:16;375.75;;;178.38;;
33716;SDS011;20046;50.746;7.072;2023-12-14T02:49:42;157.68;;;50.42;;
33716;SDS011;20046;50.746;7.072;2023-12-14T02:52:09;146.48;;;43.67;;
33716;SDS011;20046;50.746;7.072;2023-12-14T02:54:34;141.75;;;42.47;;
33716;SDS011;20046;50.746;7.072;2023-12-14T02:57:01;143.00;;;44.28;;
33716;SDS011;20046;50.746;7.072;2023-12-14T02:59:26;151.40;;;44.85;;
33716;SDS011;20046;50.746;7.072;2023-12-14T03:01:52;147.40;;;43.95;;
33716;SDS011;20046;50.746;7.072;2023-12-14T03:04:18;139.02;;;43.35;;
33716;SDS011;20046;50.746;7.072;2023-12-14T03:06:43;152.18;;;43.70;;
33716;SDS011;20046;50.746;7.072;2023-12-14T03:09:09;140.32;;;42.97;;
33716;SDS011;20046;50.746;7.072;2023-12-14T03:11:37;156.07;;;44.63;;
33716;SDS011;20046;50.746;7.072;2023-12-14T03:14:03;166.10;;;47.65;;
33716;SDS011;20046;50.746;7.072;2023-12-14T03:16:28;170.50;;;48.60;;
33716;SDS011;20046;50.746;7.072;2023-12-14T03:18:54;163.32;;;45.95;;
33716;SDS011;20046;50.746;7.072;2023-12-14T03:21:21;173.15;;;47.17;;
33716;SDS011;20046;50.746;7.072;2023-12-14T03:23:47;173.52;;;47.85;;
33716;SDS011;20046;50.746;7.072;2023-12-14T03:26:13;164.50;;;48.38;;
33716;SDS011;20046;50.746;7.072;2023-12-14T03:28:38;173.23;;;50.40;;
33716;SDS011;20046;50.746;7.072;2023-12-14T03:31:04;171.13;;;49.53;;
33716;SDS011;20046;50.746;7.072;2023-12-14T03:33:30;166.30;;;47.92;;
33716;SDS011;20046;50.746;7.072;2023-12-14T03:35:55;166.30;;;46.38;;
33716;SDS011;20046;50.746;7.072;2023-12-14T03:38:21;162.88;;;47.25;;
33716;SDS011;20046;50.746;7.072;2023-12-14T03:40:47;171.70;;;49.05;;
33716;SDS011;20046;50.746;7.072;2023-12-14T03:43:13;153.15;;;46.65;;
33716;SDS011;20046;50.746;7.072;2023-12-14T03:45:38;155.30;;;46.30;;
33716;SDS011;20046;50.746;7.072;2023-12-14T03:48:04;168.50;;;46.28;;
33716;SDS011;20046;50.746;7.072;2023-12-14T03:50:30;142.70;;;43.30;;
33716;SDS011;20046;50.746;7.072;2023-12-14T03:52:56;137.48;;;43.65;;
33716;SDS011;20046;50.746;7.072;2023-12-14T03:55:21;152.27;;;46.60;;
33716;SDS011;20046;50.746;7.072;2023-12-14T03:57:47;142.93;;;43.35;;
33716;SDS011;20046;50.746;7.072;2023-12-14T04:00:13;131.57;;;43.17;;
33716;SDS011;20046;50.746;7.072;2023-12-14T04:02:39;138.77;;;46.00;;
33716;SDS011;20046;50.746;7.072;2023-12-14T04:05:09;130.88;;;41.75;;
33716;SDS011;20046;50.746;7.072;2023-12-14T04:07:38;122.93;;;39.90;;
33716;SDS011;20046;50.746;7.072;2023-12-14T04:10:07;114.80;;;38.78;;
33716;SDS011;20046;50.746;7.072;2023-12-14T04:12:34;108.85;;;37.70;;
33716;SDS011;20046;50.746;7.072;2023-12-14T04:15:01;114.78;;;36.88;;
33716;SDS011;20046;50.746;7.072;2023-12-14T04:17:27;104.55;;;36.38;;
33716;SDS011;20046;50.746;7.072;2023-12-14T04:19:52;110.40;;;36.90;;
33716;SDS011;20046;50.746;7.072;2023-12-14T04:22:18;115.30;;;36.85;;
33716;SDS011;20046;50.746;7.072;2023-12-14T04:24:44;105.95;;;37.65;;
33716;SDS011;20046;50.746;7.072;2023-12-14T04:27:09;114.75;;;40.55;;
33716;SDS011;20046;50.746;7.072;2023-12-14T04:29:35;121.57;;;42.03;;
33716;SDS011;20046;50.746;7.072;2023-12-14T04:32:00;114.10;;;40.95;;
33716;SDS011;20046;50.746;7.072;2023-12-14T04:34:26;105.05;;;36.50;;
33716;SDS011;20046;50.746;7.072;2023-12-14T04:36:51;111.80;;;37.50;;
33716;SDS011;20046;50.746;7.072;2023-12-14T04:39:22;106.68;;;38.25;;
33716;SDS011;20046;50.746;7.072;2023-12-14T04:41:48;102.13;;;37.10;;
33716;SDS011;20046;50.746;7.072;2023-12-14T04:44:13;103.35;;;38.20;;
33716;SDS011;20046;50.746;7.072;2023-12-14T04:46:39;98.30;;;36.63;;
33716;SDS011;20046;50.746;7.072;2023-12-14T04:49:04;90.32;;;34.38;;
33716;SDS011;20046;50.746;7.072;2023-12-14T04:51:30;91.65;;;35.08;;
33716;SDS011;20046;50.746;7.072;2023-12-14T04:53:57;94.47;;;35.45;;
33716;SDS011;20046;50.746;7.072;2023-12-14T04:56:22;92.57;;;33.63;;
33716;SDS011;20046;50.746;7.072;2023-12-14T04:58:48;86.70;;;35.28;;
33716;SDS011;20046;50.746;7.072;2023-12-14T05:01:16;82.95;;;34.53;;
33716;SDS011;20046;50.746;7.072;2023-12-14T05:03:43;80.53;;;33.30;;
33716;SDS011;20046;50.746;7.072;2023-12-14T05:06:08;70.15;;;31.52;;
33716;SDS011;20046;50.746;7.072;2023-12-14T05:08:34;71.18;;;33.10;;
33716;SDS011;20046;50.746;7.072;2023-12-14T05:11:00;67.47;;;30.65;;
33716;SDS011;20046;50.746;7.072;2023-12-14T05:13:26;67.22;;;30.05;;
33716;SDS011;20046;50.746;7.072;2023-12-14T05:15:51;62.38;;;29.05;;
33716;SDS011;20046;50.746;7.072;2023-12-14T05:18:17;63.50;;;30.33;;
33716;SDS011;20046;50.746;7.072;2023-12-14T05:20:43;72.82;;;30.67;;
33716;SDS011;20046;50.746;7.072;2023-12-14T05:23:14;75.90;;;31.10;;
33716;SDS011;20046;50.746;7.072;2023-12-14T05:25:40;88.85;;;38.35;;
33716;SDS011;20046;50.746;7.072;2023-12-14T05:28:08;93.13;;;39.95;;
33716;SDS011;20046;50.746;7.072;2023-12-14T05:30:34;99.13;;;40.00;;
33716;SDS011;20046;50.746;7.072;2023-12-14T05:33:00;94.10;;;39.50;;
33716;SDS011;20046;50.746;7.072;2023-12-14T05:35:26;85.72;;;35.60;;
33716;SDS011;20046;50.746;7.072;2023-12-14T05:37:52;86.18;;;36.85;;
33716;SDS011;20046;50.746;7.072;2023-12-14T05:40:18;95.32;;;38.58;;
33716;SDS011;20046;50.746;7.072;2023-12-14T05:42:43;110.55;;;42.58;;
33716;SDS011;20046;50.746;7.072;2023-12-14T05:45:09;111.82;;;43.00;;
33716;SDS011;20046;50.746;7.072;2023-12-14T05:47:35;118.47;;;44.75;;
33716;SDS011;20046;50.746;7.072;2023-12-14T05:50:02;127.45;;;46.95;;
33716;SDS011;20046;50.746;7.072;2023-12-14T05:52:29;119.88;;;44.33;;
33716;SDS011;20046;50.746;7.072;2023-12-14T05:54:54;132.30;;;47.90;;
33716;SDS011;20046;50.746;7.072;2023-12-14T05:57:20;118.35;;;43.85;;
33716;SDS011;20046;50.746;7.072;2023-12-14T05:59:45;128.10;;;44.00;;
33716;SDS011;20046;50.746;7.072;2023-12-14T06:02:11;124.43;;;43.88;;
33716;SDS011;20046;50.746;7.072;2023-12-14T06:04:37;131.95;;;45.72;;
33716;SDS011;20046;50.746;7.072;2023-12-14T06:07:02;127.80;;;45.88;;
33716;SDS011;20046;50.746;7.072;2023-12-14T06:09:28;133.50;;;47.40;;
33716;SDS011;20046;50.746;7.072;2023-12-14T06:12:03;129.15;;;45.97;;
33716;SDS011;20046;50.746;7.072;2023-12-14T06:14:30;141.65;;;47.92;;
33716;SDS011;20046;50.746;7.072;2023-12-14T06:16:56;135.32;;;47.17;;
33716;SDS011;20046;50.746;7.072;2023-12-14T06:19:23;133.02;;;45.92;;
33716;SDS011;20046;50.746;7.072;2023-12-14T06:21:49;147.23;;;47.13;;
33716;SDS011;20046;50.746;7.072;2023-12-14T06:24:15;133.05;;;46.70;;
33716;SDS011;20046;50.746;7.072;2023-12-14T06:26:41;145.80;;;46.88;;
33716;SDS011;20046;50.746;7.072;2023-12-14T06:29:08;156.90;;;47.60;;
33716;SDS011;20046;50.746;7.072;2023-12-14T06:31:34;141.60;;;48.78;;
33716;SDS011;20046;50.746;7.072;2023-12-14T06:34:00;139.93;;;48.38;;
33716;SDS011;20046;50.746;7.072;2023-12-14T06:36:28;144.40;;;47.95;;
33716;SDS011;20046;50.746;7.072;2023-12-14T06:38:58;139.55;;;46.80;;
33716;SDS011;20046;50.746;7.072;2023-12-14T06:41:24;145.80;;;47.42;;
33716;SDS011;20046;50.746;7.072;2023-12-14T06:43:51;126.35;;;45.05;;
33716;SDS011;20046;50.746;7.072;2023-12-14T06:46:17;117.75;;;45.38;;
33716;SDS011;20046;50.746;7.072;2023-12-14T06:48:44;108.93;;;43.80;;
33716;SDS011;20046;50.746;7.072;2023-12-14T06:51:10;108.53;;;43.38;;
33716;SDS011;20046;50.746;7.072;2023-12-14T06:53:38;117.75;;;43.35;;
33716;SDS011;20046;50.746;7.072;2023-12-14T06:56:05;118.90;;;44.25;;
33716;SDS011;20046;50.746;7.072;2023-12-14T06:58:34;130.98;;;45.10;;
33716;SDS011;20046;50.746;7.072;2023-12-14T07:01:00;120.45;;;43.42;;
33716;SDS011;20046;50.746;7.072;2023-12-14T07:03:26;128.05;;;45.47;;
33716;SDS011;20046;50.746;7.072;2023-12-14T07:05:51;128.70;;;43.13;;
33716;SDS011;20046;50.746;7.072;2023-12-14T07:08:17;125.20;;;43.70;;
33716;SDS011;20046;50.746;7.072;2023-12-14T07:10:42;142.55;;;51.92;;
33716;SDS011;20046;50.746;7.072;2023-12-14T07:13:08;123.95;;;43.97;;
33716;SDS011;20046;50.746;7.072;2023-12-14T07:15:33;104.18;;;39.85;;
33716;SDS011;20046;50.746;7.072;2023-12-14T07:17:59;108.32;;;39.28;;
33716;SDS011;20046;50.746;7.072;2023-12-14T07:20:25;116.85;;;39.75;;
33716;SDS011;20046;50.746;7.072;2023-12-14T07:22:50;113.47;;;40.70;;
33716;SDS011;20046;50.746;7.072;2023-12-14T07:25:16;124.80;;;39.42;;
33716;SDS011;20046;50.746;7.072;2023-12-14T07:27:41;123.70;;;43.05;;
33716;SDS011;20046;50.746;7.072;2023-12-14T07:30:08;125.95;;;43.13;;
33716;SDS011;20046;50.746;7.072;2023-12-14T07:32:34;126.45;;;42.55;;
33716;SDS011;20046;50.746;7.072;2023-12-14T07:35:00;132.05;;;42.40;;
33716;SDS011;20046;50.746;7.072;2023-12-14T07:37:26;110.95;;;38.83;;
33716;SDS011;20046;50.746;7.072;2023-12-14T07:39:51;110.32;;;37.40;;
33716;SDS011;20046;50.746;7.072;2023-12-14T07:42:17;111.18;;;37.08;;
33716;SDS011;20046;50.746;7.072;2023-12-14T07:44:45;107.20;;;33.25;;
33716;SDS011;20046;50.746;7.072;2023-12-14T07:47:11;93.57;;;30.73;;
33716;SDS011;20046;50.746;7.072;2023-12-14T07:49:36;101.28;;;32.10;;
33716;SDS011;20046;50.746;7.072;2023-12-14T07:52:02;97.80;;;32.13;;
33716;SDS011;20046;50.746;7.072;2023-12-14T07:54:27;93.57;;;29.65;;
33716;SDS011;20046;50.746;7.072;2023-12-14T07:56:54;90.15;;;30.63;;
33716;SDS011;20046;50.746;7.072;2023-12-14T07:59:19;84.88;;;30.40;;
33716;SDS011;20046;50.746;7.072;2023-12-14T08:01:45;89.18;;;31.10;;
33716;SDS011;20046;50.746;7.072;2023-12-14T08:04:11;97.63;;;31.35;;
33716;SDS011;20046;50.746;7.072;2023-12-14T08:06:37;96.28;;;31.33;;
33716;SDS011;20046;50.746;7.072;2023-12-14T08:09:06;106.00;;;34.15;;
33716;SDS011;20046;50.746;7.072;2023-12-14T08:11:32;112.38;;;32.55;;
33716;SDS011;20046;50.746;7.072;2023-12-14T08:13:58;109.00;;;34.42;;
33716;SDS011;20046;50.746;7.072;2023-12-14T08:16:23;113.25;;;34.28;;
33716;SDS011;20046;50.746;7.072;2023-12-14T08:18:49;115.85;;;34.95;;
33716;SDS011;20046;50.746;7.072;2023-12-14T08:21:15;116.68;;;36.08;;
33716;SDS011;20046;50.746;7.072;2023-12-14T08:23:41;111.15;;;34.03;;
33716;SDS011;20046;50.746;7.072;2023-12-14T08:26:07;111.60;;;34.38;;
33716;SDS011;20046;50.746;7.072;2023-12-14T08:28:35;122.55;;;40.85;;
33716;SDS011;20046;50.746;7.072;2023-12-14T08:31:00;134.60;;;41.22;;
33716;SDS011;20046;50.746;7.072;2023-12-14T08:33:30;112.38;;;34.72;;
33716;SDS011;20046;50.746;7.072;2023-12-14T08:35:56;112.97;;;35.28;;
33716;SDS011;20046;50.746;7.072;2023-12-14T08:38:22;99.65;;;31.05;;
33716;SDS011;20046;50.746;7.072;2023-12-14T08:40:49;101.30;;;31.33;;
33716;SDS011;20046;50.746;7.072;2023-12-14T08:43:16;96.97;;;28.38;;
33716;SDS011;20046;50.746;7.072;2023-12-14T08:45:42;94.50;;;29.55;;
33716;SDS011;20046;50.746;7.072;2023-12-14T08:48:08;87.43;;;28.20;;
33716;SDS011;20046;50.746;7.072;2023-12-14T08:50:33;80.35;;;26.70;;
33716;SDS011;20046;50.746;7.072;2023-12-14T08:52:59;75.10;;;25.33;;
33716;SDS011;20046;50.746;7.072;2023-12-14T08:55:25;85.25;;;26.33;;
33716;SDS011;20046;50.746;7.072;2023-12-14T08:57:51;71.15;;;24.70;;
33716;SDS011;20046;50.746;7.072;2023-12-14T09:00:17;77.90;;;24.85;;
33716;SDS011;20046;50.746;7.072;2023-12-14T09:02:44;75.53;;;24.95;;
33716;SDS011;20046;50.746;7.072;2023-12-14T09:05:13;71.32;;;25.10;;
33716;SDS011;20046;50.746;7.072;2023-12-14T09:07:41;70.18;;;24.75;;
33716;SDS011;20046;50.746;7.072;2023-12-14T09:10:07;80.93;;;25.20;;
33716;SDS011;20046;50.746;7.072;2023-12-14T09:12:33;71.60;;;25.30;;
33716;SDS011;20046;50.746;7.072;2023-12-14T09:14:59;80.07;;;25.00;;
33716;SDS011;20046;50.746;7.072;2023-12-14T09:17:25;65.90;;;23.70;;
33716;SDS011;20046;50.746;7.072;2023-12-14T09:19:56;65.68;;;23.15;;
33716;SDS011;20046;50.746;7.072;2023-12-14T09:22:22;73.60;;;22.92;;
33716;SDS011;20046;50.746;7.072;2023-12-14T09:24:47;59.97;;;22.67;;
33716;SDS011;20046;50.746;7.072;2023-12-14T09:27:13;62.13;;;22.45;;
33716;SDS011;20046;50.746;7.072;2023-12-14T09:29:40;104.18;;;40.75;;
33716;SDS011;20046;50.746;7.072;2023-12-14T09:32:07;53.85;;;21.55;;
33716;SDS011;20046;50.746;7.072;2023-12-14T09:34:33;55.80;;;20.60;;
33716;SDS011;20046;50.746;7.072;2023-12-14T09:36:59;59.03;;;21.60;;
33716;SDS011;20046;50.746;7.072;2023-12-14T09:39:25;56.58;;;20.50;;
33716;SDS011;20046;50.746;7.072;2023-12-14T09:41:50;57.05;;;21.23;;
33716;SDS011;20046;50.746;7.072;2023-12-14T09:44:16;56.67;;;21.08;;
33716;SDS011;20046;50.746;7.072;2023-12-14T09:46:41;54.58;;;21.13;;
33716;SDS011;20046;50.746;7.072;2023-12-14T09:49:14;50.20;;;20.15;;
33716;SDS011;20046;50.746;7.072;2023-12-14T09:51:40;46.92;;;18.80;;
33716;SDS011;20046;50.746;7.072;2023-12-14T09:54:06;50.35;;;19.38;;
33716;SDS011;20046;50.746;7.072;2023-12-14T09:56:32;45.72;;;17.40;;
33716;SDS011;20046;50.746;7.072;2023-12-14T09:58:57;50.38;;;20.05;;
33716;SDS011;20046;50.746;7.072;2023-12-14T10:01:25;48.22;;;18.88;;
33716;SDS011;20046;50.746;7.072;2023-12-14T10:04:11;50.95;;;18.75;;
33716;SDS011;20046;50.746;7.072;2023-12-14T10:06:38;51.40;;;19.10;;
33716;SDS011;20046;50.746;7.072;2023-12-14T10:09:05;46.35;;;19.38;;
33716;SDS011;20046;50.746;7.072;2023-12-14T10:11:44;74.70;;;36.03;;
33716;SDS011;20046;50.746;7.072;2023-12-14T10:14:23;72.72;;;31.80;;
33716;SDS011;20046;50.746;7.072;2023-12-14T10:16:50;52.50;;;21.83;;
33716;SDS011;20046;50.746;7.072;2023-12-14T10:19:17;47.78;;;19.23;;
33716;SDS011;20046;50.746;7.072;2023-12-14T10:21:43;280.77;;;142.45;;
33716;SDS011;20046;50.746;7.072;2023-12-14T10:24:11;52.78;;;22.73;;
33716;SDS011;20046;50.746;7.072;2023-12-14T10:26:37;51.60;;;20.42;;
33716;SDS011;20046;50.746;7.072;2023-12-14T10:29:03;48.08;;;21.35;;
33716;SDS011;20046;50.746;7.072;2023-12-14T10:31:30;59.95;;;22.58;;
33716;SDS011;20046;50.746;7.072;2023-12-14T10:33:56;56.92;;;22.92;;
33716;SDS011;20046;50.746;7.072;2023-12-14T10:36:22;62.42;;;23.30;;
33716;SDS011;20046;50.746;7.072;2023-12-14T10:38:53;55.85;;;23.45;;
33716;SDS011;20046;50.746;7.072;2023-12-14T10:41:21;53.35;;;23.30;;
33716;SDS011;20046;50.746;7.072;2023-12-14T10:43:48;62.20;;;23.20;;
33716;SDS011;20046;50.746;7.072;2023-12-14T10:46:15;58.60;;;23.17;;
33716;SDS011;20046;50.746;7.072;2023-12-14T10:48:42;48.97;;;21.73;;
33716;SDS011;20046;50.746;7.072;2023-12-14T10:51:11;51.35;;;22.17;;
33716;SDS011;20046;50.746;7.072;2023-12-14T10:53:37;49.78;;;20.90;;
33716;SDS011;20046;50.746;7.072;2023-12-14T10:56:04;54.35;;;21.90;;
33716;SDS011;20046;50.746;7.072;2023-12-14T10:58:44;58.67;;;24.20;;
33716;SDS011;20046;50.746;7.072;2023-12-14T11:01:13;51.42;;;23.05;;
33716;SDS011;20046;50.746;7.072;2023-12-14T11:03:40;50.75;;;21.88;;
33716;SDS011;20046;50.746;7.072;2023-12-14T11:06:20;51.92;;;21.55;;
33716;SDS011;20046;50.746;7.072;2023-12-14T11:08:46;47.33;;;20.73;;
33716;SDS011;20046;50.746;7.072;2023-12-14T11:11:11;53.53;;;21.80;;
33716;SDS011;20046;50.746;7.072;2023-12-14T11:13:40;54.83;;;22.83;;
33716;SDS011;20046;50.746;7.072;2023-12-14T11:16:06;51.03;;;20.77;;
33716;SDS011;20046;50.746;7.072;2023-12-14T11:18:33;55.50;;;21.85;;
33716;SDS011;20046;50.746;7.072;2023-12-14T11:21:01;52.42;;;23.55;;
33716;SDS011;20046;50.746;7.072;2023-12-14T11:23:28;77.50;;;34.70;;
33716;SDS011;20046;50.746;7.072;2023-12-14T11:26:43;72.43;;;30.75;;
33716;SDS011;20046;50.746;7.072;2023-12-14T11:28:50;63.55;;;26.52;;
33716;SDS011;20046;50.746;7.072;2023-12-14T11:31:15;53.97;;;23.75;;
33716;SDS011;20046;50.746;7.072;2023-12-14T11:33:41;52.08;;;23.38;;
33716;SDS011;20046;50.746;7.072;2023-12-14T11:36:10;56.17;;;23.65;;
33716;SDS011;20046;50.746;7.072;2023-12-14T11:38:36;61.42;;;23.88;;
33716;SDS011;20046;50.746;7.072;2023-12-14T11:41:02;63.05;;;22.98;;
33716;SDS011;20046;50.746;7.072;2023-12-14T11:43:28;55.38;;;23.73;;
33716;SDS011;20046;50.746;7.072;2023-12-14T11:45:54;51.58;;;22.45;;
33716;SDS011;20046;50.746;7.072;2023-12-14T11:48:20;51.97;;;23.17;;
33716;SDS011;20046;50.746;7.072;2023-12-14T11:50:46;55.20;;;24.50;;
33716;SDS011;20046;50.746;7.072;2023-12-14T11:53:12;51.67;;;23.90;;
33716;SDS011;20046;50.746;7.072;2023-12-14T11:55:39;58.00;;;26.30;;
33716;SDS011;20046;50.746;7.072;2023-12-14T11:58:05;55.38;;;25.67;;
33716;SDS011;20046;50.746;7.072;2023-12-14T12:00:33;56.58;;;25.33;;
33716;SDS011;20046;50.746;7.072;2023-12-14T12:03:18;58.72;;;25.13;;
33716;SDS011;20046;50.746;7.072;2023-12-14T12:05:46;51.53;;;23.45;;
33716;SDS011;20046;50.746;7.072;2023-12-14T12:08:13;49.58;;;23.23;;
33716;SDS011;20046;50.746;7.072;2023-12-14T12:10:41;52.80;;;22.63;;
33716;SDS011;20046;50.746;7.072;2023-12-14T12:13:12;48.17;;;21.77;;
33716;SDS011;20046;50.746;7.072;2023-12-14T12:15:38;44.05;;;20.95;;
33716;SDS011;20046;50.746;7.072;2023-12-14T12:18:06;113.97;;;54.90;;
33716;SDS011;20046;50.746;7.072;2023-12-14T12:20:32;48.55;;;23.30;;
33716;SDS011;20046;50.746;7.072;2023-12-14T12:22:59;52.70;;;23.50;;
33716;SDS011;20046;50.746;7.072;2023-12-14T12:25:25;50.58;;;21.90;;
33716;SDS011;20046;50.746;7.072;2023-12-14T12:27:52;58.85;;;25.45;;
33716;SDS011;20046;50.746;7.072;2023-12-14T12:30:19;47.88;;;22.63;;
33716;SDS011;20046;50.746;7.072;2023-12-14T12:32:44;50.38;;;23.02;;
33716;SDS011;20046;50.746;7.072;2023-12-14T12:35:10;67.68;;;34.78;;
33716;SDS011;20046;50.746;7.072;2023-12-14T12:37:36;263.10;;;156.15;;
33716;SDS011;20046;50.746;7.072;2023-12-14T12:40:01;56.10;;;23.38;;
33716;SDS011;20046;50.746;7.072;2023-12-14T12:42:27;50.13;;;21.17;;
33716;SDS011;20046;50.746;7.072;2023-12-14T12:44:54;47.40;;;22.58;;
33716;SDS011;20046;50.746;7.072;2023-12-14T12:47:20;43.78;;;21.95;;
33716;SDS011;20046;50.746;7.072;2023-12-14T12:49:45;45.45;;;21.00;;
33716;SDS011;20046;50.746;7.072;2023-12-14T12:52:11;49.00;;;21.05;;
33716;SDS011;20046;50.746;7.072;2023-12-14T12:54:36;52.78;;;21.92;;
33716;SDS011;20046;50.746;7.072;2023-12-14T12:57:02;41.17;;;20.67;;
33716;SDS011;20046;50.746;7.072;2023-12-14T12:59:28;44.88;;;21.08;;
33716;SDS011;20046;50.746;7.072;2023-12-14T13:01:54;64.38;;;27.55;;
33716;SDS011;20046;50.746;7.072;2023-12-14T13:04:20;46.33;;;21.40;;
33716;SDS011;20046;50.746;7.072;2023-12-14T13:06:49;58.53;;;26.55;;
33716;SDS011;20046;50.746;7.072;2023-12-14T13:09:15;52.58;;;22.95;;
33716;SDS011;20046;50.746;7.072;2023-12-14T13:11:42;46.03;;;21.55;;
33716;SDS011;20046;50.746;7.072;2023-12-14T13:14:08;44.67;;;19.90;;
33716;SDS011;20046;50.746;7.072;2023-12-14T13:16:35;44.05;;;21.42;;
33716;SDS011;20046;50.746;7.072;2023-12-14T13:19:01;44.42;;;20.02;;
33716;SDS011;20046;50.746;7.072;2023-12-14T13:21:28;45.13;;;21.10;;
33716;SDS011;20046;50.746;7.072;2023-12-14T13:23:54;45.15;;;19.90;;
33716;SDS011;20046;50.746;7.072;2023-12-14T13:26:21;50.35;;;24.17;;
33716;SDS011;20046;50.746;7.072;2023-12-14T13:28:47;55.00;;;25.55;;
33716;SDS011;20046;50.746;7.072;2023-12-14T13:31:12;232.00;;;104.90;;
33716;SDS011;20046;50.746;7.072;2023-12-14T13:33:38;48.90;;;22.33;;
33716;SDS011;20046;50.746;7.072;2023-12-14T13:36:04;45.17;;;22.27;;
33716;SDS011;20046;50.746;7.072;2023-12-14T13:38:31;45.42;;;20.55;;
33716;SDS011;20046;50.746;7.072;2023-12-14T13:40:58;41.05;;;19.00;;
33716;SDS011;20046;50.746;7.072;2023-12-14T13:43:24;43.20;;;20.75;;
33716;SDS011;20046;50.746;7.072;2023-12-14T13:45:50;45.30;;;21.70;;
33716;SDS011;20046;50.746;7.072;2023-12-14T13:48:17;40.05;;;20.00;;
33716;SDS011;20046;50.746;7.072;2023-12-14T13:50:43;42.05;;;20.80;;
33716;SDS011;20046;50.746;7.072;2023-12-14T13:53:09;45.97;;;20.98;;
33716;SDS011;20046;50.746;7.072;2023-12-14T13:55:35;41.45;;;20.10;;
33716;SDS011;20046;50.746;7.072;2023-12-14T13:58:01;42.38;;;20.33;;
33716;SDS011;20046;50.746;7.072;2023-12-14T14:00:27;38.38;;;18.95;;
33716;SDS011;20046;50.746;7.072;2023-12-14T14:02:53;42.33;;;20.15;;
33716;SDS011;20046;50.746;7.072;2023-12-14T14:05:19;39.15;;;19.08;;
33716;SDS011;20046;50.746;7.072;2023-12-14T14:07:45;52.05;;;20.13;;
33716;SDS011;20046;50.746;7.072;2023-12-14T14:10:10;44.30;;;20.35;;
33716;SDS011;20046;50.746;7.072;2023-12-14T14:12:36;41.17;;;20.38;;